KATP

Atlantis

Atlantis, Louisiana, USA
METAR KATP 181455Z AUTO 04012KT 9SM SCT040 13/05 A3045 RMK A01
Observed Flight Rules
Jan-18 @ 14:55 UTC (33 minutes ago) Visual Flight Rules
Wind Visibility Clouds
40° at 12 knots 9 miles
  • Scattered at 4,000' AGL
Temperatures Readings
Current 13°C / 55°F
Dewpoint 5°C / 41°F
Humidity 59%
Altimeter 30.45" Hg
Pressure 1031 hPa
Elevation 62
METAR KATP 181455Z AUTO 04012KT 9SM SCT040 13/05 A3045 RMK A01
Observed Flight Rules
Jan-18 @ 14:55 UTC
(33 minutes ago)
VFR
Wind Visibility
40° at 12 knots 9 miles
Clouds
  • Scattered at 4,000' AGL
Temperature Dewpoint
13°C / 55°F 5°C / 41°F
Humidity Altimeter Pressure
59% 30.45" Hg 1031 hPa